sensor_id;sensor_type;location;lat;lon;timestamp;temperature;humidity
4759;DHT22;2393;50.560;12.636;2022-07-12T00:02:22;13.70;99.90
4759;DHT22;2393;50.560;12.636;2022-07-12T00:04:50;13.70;99.90
4759;DHT22;2393;50.560;12.636;2022-07-12T00:07:20;13.70;99.90
4759;DHT22;2393;50.560;12.636;2022-07-12T00:09:49;13.60;99.90
4759;DHT22;2393;50.560;12.636;2022-07-12T00:12:16;13.60;99.90
4759;DHT22;2393;50.560;12.636;2022-07-12T00:14:45;13.60;99.90
4759;DHT22;2393;50.560;12.636;2022-07-12T00:17:13;13.60;99.90
4759;DHT22;2393;50.560;12.636;2022-07-12T00:19:41;13.60;99.90
4759;DHT22;2393;50.560;12.636;2022-07-12T00:22:09;13.60;99.90
4759;DHT22;2393;50.560;12.636;2022-07-12T00:24:40;13.70;99.90
4759;DHT22;2393;50.560;12.636;2022-07-12T00:27:08;13.70;99.90
4759;DHT22;2393;50.560;12.636;2022-07-12T00:29:36;13.80;99.90
4759;DHT22;2393;50.560;12.636;2022-07-12T00:32:05;13.70;99.90
4759;DHT22;2393;50.560;12.636;2022-07-12T00:34:34;13.80;99.90
4759;DHT22;2393;50.560;12.636;2022-07-12T00:37:02;13.80;99.90
4759;DHT22;2393;50.560;12.636;2022-07-12T00:39:31;13.90;99.90
4759;DHT22;2393;50.560;12.636;2022-07-12T00:42:00;13.90;99.90
4759;DHT22;2393;50.560;12.636;2022-07-12T00:44:28;14.00;99.90
4759;DHT22;2393;50.560;12.636;2022-07-12T00:46:57;14.10;99.90
4759;DHT22;2393;50.560;12.636;2022-07-12T00:49:26;14.10;99.90
4759;DHT22;2393;50.560;12.636;2022-07-12T00:51:54;14.10;99.90
4759;DHT22;2393;50.560;12.636;2022-07-12T00:54:23;14.20;99.90
4759;DHT22;2393;50.560;12.636;2022-07-12T00:56:51;14.20;99.90
4759;DHT22;2393;50.560;12.636;2022-07-12T00:59:21;14.30;99.90
4759;DHT22;2393;50.560;12.636;2022-07-12T01:01:49;14.30;99.90
4759;DHT22;2393;50.560;12.636;2022-07-12T01:04:17;14.40;99.90
4759;DHT22;2393;50.560;12.636;2022-07-12T01:06:45;14.40;99.90
4759;DHT22;2393;50.560;12.636;2022-07-12T01:09:14;14.40;99.90
4759;DHT22;2393;50.560;12.636;2022-07-12T01:11:42;14.40;99.90
4759;DHT22;2393;50.560;12.636;2022-07-12T01:14:11;14.50;99.90
4759;DHT22;2393;50.560;12.636;2022-07-12T01:16:41;14.50;99.90
4759;DHT22;2393;50.560;12.636;2022-07-12T01:19:12;14.60;99.90
4759;DHT22;2393;50.560;12.636;2022-07-12T01:21:46;14.60;99.90
4759;DHT22;2393;50.560;12.636;2022-07-12T01:24:18;14.60;99.90
4759;DHT22;2393;50.560;12.636;2022-07-12T01:26:46;14.70;99.90
4759;DHT22;2393;50.560;12.636;2022-07-12T01:29:15;14.70;99.90
4759;DHT22;2393;50.560;12.636;2022-07-12T01:31:43;14.70;99.90
4759;DHT22;2393;50.560;12.636;2022-07-12T01:34:11;14.80;99.90
4759;DHT22;2393;50.560;12.636;2022-07-12T01:36:39;14.80;99.90
4759;DHT22;2393;50.560;12.636;2022-07-12T01:39:10;14.90;99.90
4759;DHT22;2393;50.560;12.636;2022-07-12T01:41:40;14.90;99.90
4759;DHT22;2393;50.560;12.636;2022-07-12T01:44:08;15.00;99.90
4759;DHT22;2393;50.560;12.636;2022-07-12T01:46:37;15.00;99.90
4759;DHT22;2393;50.560;12.636;2022-07-12T01:49:06;15.00;99.90
4759;DHT22;2393;50.560;12.636;2022-07-12T01:51:34;15.00;99.90
4759;DHT22;2393;50.560;12.636;2022-07-12T01:54:03;15.10;99.90
4759;DHT22;2393;50.560;12.636;2022-07-12T01:56:31;15.10;99.90
4759;DHT22;2393;50.560;12.636;2022-07-12T01:59:00;15.10;99.90
4759;DHT22;2393;50.560;12.636;2022-07-12T02:01:28;15.10;99.90
4759;DHT22;2393;50.560;12.636;2022-07-12T02:04:01;15.10;99.90
4759;DHT22;2393;50.560;12.636;2022-07-12T02:06:30;15.20;99.90
4759;DHT22;2393;50.560;12.636;2022-07-12T02:08:59;15.10;99.90
4759;DHT22;2393;50.560;12.636;2022-07-12T02:11:26;15.20;99.90
4759;DHT22;2393;50.560;12.636;2022-07-12T02:13:54;15.20;99.90
4759;DHT22;2393;50.560;12.636;2022-07-12T02:16:24;15.20;99.90
4759;DHT22;2393;50.560;12.636;2022-07-12T02:18:52;15.20;99.90
4759;DHT22;2393;50.560;12.636;2022-07-12T02:21:20;15.20;99.90
4759;DHT22;2393;50.560;12.636;2022-07-12T02:23:48;15.20;99.90
4759;DHT22;2393;50.560;12.636;2022-07-12T02:26:16;15.20;99.90
4759;DHT22;2393;50.560;12.636;2022-07-12T02:28:44;15.20;99.90
4759;DHT22;2393;50.560;12.636;2022-07-12T02:31:12;15.20;99.90
4759;DHT22;2393;50.560;12.636;2022-07-12T02:33:41;15.20;99.90
4759;DHT22;2393;50.560;12.636;2022-07-12T02:36:09;15.30;99.90
4759;DHT22;2393;50.560;12.636;2022-07-12T02:38:37;15.30;99.90
4759;DHT22;2393;50.560;12.636;2022-07-12T02:41:05;15.30;99.90
4759;DHT22;2393;50.560;12.636;2022-07-12T02:43:33;15.30;99.90
4759;DHT22;2393;50.560;12.636;2022-07-12T02:46:04;15.30;99.90
4759;DHT22;2393;50.560;12.636;2022-07-12T02:48:32;15.30;99.90
4759;DHT22;2393;50.560;12.636;2022-07-12T02:51:03;15.30;99.90
4759;DHT22;2393;50.560;12.636;2022-07-12T02:53:31;15.30;99.90
4759;DHT22;2393;50.560;12.636;2022-07-12T02:56:07;15.30;99.90
4759;DHT22;2393;50.560;12.636;2022-07-12T02:58:35;15.30;99.90
4759;DHT22;2393;50.560;12.636;2022-07-12T03:01:04;15.30;99.90
4759;DHT22;2393;50.560;12.636;2022-07-12T03:03:32;15.40;99.90
4759;DHT22;2393;50.560;12.636;2022-07-12T03:06:01;15.40;99.90
4759;DHT22;2393;50.560;12.636;2022-07-12T03:08:29;15.40;99.90
4759;DHT22;2393;50.560;12.636;2022-07-12T03:10:57;15.30;99.90
4759;DHT22;2393;50.560;12.636;2022-07-12T03:13:25;15.30;99.90
4759;DHT22;2393;50.560;12.636;2022-07-12T03:15:53;15.30;99.90
4759;DHT22;2393;50.560;12.636;2022-07-12T03:18:23;15.30;99.90
4759;DHT22;2393;50.560;12.636;2022-07-12T03:20:52;15.30;99.90
4759;DHT22;2393;50.560;12.636;2022-07-12T03:23:21;15.30;99.90
4759;DHT22;2393;50.560;12.636;2022-07-12T03:25:49;15.30;99.90
4759;DHT22;2393;50.560;12.636;2022-07-12T03:28:17;15.30;99.90
4759;DHT22;2393;50.560;12.636;2022-07-12T03:30:45;15.30;99.90
4759;DHT22;2393;50.560;12.636;2022-07-12T03:33:13;15.30;99.90
4759;DHT22;2393;50.560;12.636;2022-07-12T03:35:41;15.30;99.90
4759;DHT22;2393;50.560;12.636;2022-07-12T03:38:09;15.30;99.90
4759;DHT22;2393;50.560;12.636;2022-07-12T03:40:38;15.20;99.90
4759;DHT22;2393;50.560;12.636;2022-07-12T03:43:06;15.20;99.90
4759;DHT22;2393;50.560;12.636;2022-07-12T03:45:34;15.20;99.90
4759;DHT22;2393;50.560;12.636;2022-07-12T03:48:02;15.20;99.90
4759;DHT22;2393;50.560;12.636;2022-07-12T03:50:31;15.20;99.90
4759;DHT22;2393;50.560;12.636;2022-07-12T03:52:59;15.20;99.90
4759;DHT22;2393;50.560;12.636;2022-07-12T03:55:26;15.20;99.90
4759;DHT22;2393;50.560;12.636;2022-07-12T03:57:56;15.20;99.90
4759;DHT22;2393;50.560;12.636;2022-07-12T04:00:24;15.20;99.90
4759;DHT22;2393;50.560;12.636;2022-07-12T04:02:52;15.20;99.90
4759;DHT22;2393;50.560;12.636;2022-07-12T04:05:22;15.20;99.90
4759;DHT22;2393;50.560;12.636;2022-07-12T04:07:53;15.20;99.90
4759;DHT22;2393;50.560;12.636;2022-07-12T04:10:22;15.20;99.90
4759;DHT22;2393;50.560;12.636;2022-07-12T04:12:49;15.20;99.90
4759;DHT22;2393;50.560;12.636;2022-07-12T04:15:19;15.20;99.90
4759;DHT22;2393;50.560;12.636;2022-07-12T04:17:48;15.20;99.90
4759;DHT22;2393;50.560;12.636;2022-07-12T04:20:16;15.20;99.90
4759;DHT22;2393;50.560;12.636;2022-07-12T04:22:44;15.30;99.90
4759;DHT22;2393;50.560;12.636;2022-07-12T04:25:12;15.20;99.90
4759;DHT22;2393;50.560;12.636;2022-07-12T04:27:40;15.30;99.90
4759;DHT22;2393;50.560;12.636;2022-07-12T04:30:09;15.30;99.90
4759;DHT22;2393;50.560;12.636;2022-07-12T04:32:38;15.30;99.90
4759;DHT22;2393;50.560;12.636;2022-07-12T04:35:06;15.40;99.90
4759;DHT22;2393;50.560;12.636;2022-07-12T04:37:34;15.40;99.90
4759;DHT22;2393;50.560;12.636;2022-07-12T04:40:03;15.50;99.90
4759;DHT22;2393;50.560;12.636;2022-07-12T04:42:31;15.50;99.90
4759;DHT22;2393;50.560;12.636;2022-07-12T04:44:59;15.50;99.90
4759;DHT22;2393;50.560;12.636;2022-07-12T04:47:27;15.60;99.90
4759;DHT22;2393;50.560;12.636;2022-07-12T04:49:57;15.70;99.90
4759;DHT22;2393;50.560;12.636;2022-07-12T04:52:24;15.70;99.90
4759;DHT22;2393;50.560;12.636;2022-07-12T04:54:52;15.70;99.90
4759;DHT22;2393;50.560;12.636;2022-07-12T04:57:20;15.80;99.90
4759;DHT22;2393;50.560;12.636;2022-07-12T04:59:48;15.80;99.90
4759;DHT22;2393;50.560;12.636;2022-07-12T05:02:16;15.80;99.90
4759;DHT22;2393;50.560;12.636;2022-07-12T05:04:44;15.90;99.90
4759;DHT22;2393;50.560;12.636;2022-07-12T05:07:14;16.00;99.90
4759;DHT22;2393;50.560;12.636;2022-07-12T05:09:42;16.00;99.90
4759;DHT22;2393;50.560;12.636;2022-07-12T05:12:10;16.10;99.90
4759;DHT22;2393;50.560;12.636;2022-07-12T05:14:38;16.30;99.90
4759;DHT22;2393;50.560;12.636;2022-07-12T05:17:06;16.40;99.90
4759;DHT22;2393;50.560;12.636;2022-07-12T05:19:34;16.50;99.90
4759;DHT22;2393;50.560;12.636;2022-07-12T05:22:02;16.60;99.90
4759;DHT22;2393;50.560;12.636;2022-07-12T05:24:31;16.60;99.90
4759;DHT22;2393;50.560;12.636;2022-07-12T05:26:59;16.70;99.90
4759;DHT22;2393;50.560;12.636;2022-07-12T05:29:27;16.70;99.90
4759;DHT22;2393;50.560;12.636;2022-07-12T05:31:56;16.70;99.90
4759;DHT22;2393;50.560;12.636;2022-07-12T05:34:24;16.70;99.90
4759;DHT22;2393;50.560;12.636;2022-07-12T05:36:52;16.60;99.90
4759;DHT22;2393;50.560;12.636;2022-07-12T05:39:20;16.60;99.90
4759;DHT22;2393;50.560;12.636;2022-07-12T05:41:49;16.70;99.90
4759;DHT22;2393;50.560;12.636;2022-07-12T05:44:17;16.80;99.90
4759;DHT22;2393;50.560;12.636;2022-07-12T05:46:46;16.90;99.90
4759;DHT22;2393;50.560;12.636;2022-07-12T05:49:14;17.00;99.90
4759;DHT22;2393;50.560;12.636;2022-07-12T05:51:42;17.20;99.90
4759;DHT22;2393;50.560;12.636;2022-07-12T05:54:27;17.50;99.90
4759;DHT22;2393;50.560;12.636;2022-07-12T05:56:56;17.80;99.90
4759;DHT22;2393;50.560;12.636;2022-07-12T05:59:24;18.10;99.90
4759;DHT22;2393;50.560;12.636;2022-07-12T06:01:52;18.50;99.90
4759;DHT22;2393;50.560;12.636;2022-07-12T06:04:20;18.70;99.90
4759;DHT22;2393;50.560;12.636;2022-07-12T06:06:48;18.80;99.90
4759;DHT22;2393;50.560;12.636;2022-07-12T06:09:16;18.80;99.90
4759;DHT22;2393;50.560;12.636;2022-07-12T06:11:48;18.80;99.90
4759;DHT22;2393;50.560;12.636;2022-07-12T06:14:18;18.80;99.90
4759;DHT22;2393;50.560;12.636;2022-07-12T06:16:46;18.80;99.90
4759;DHT22;2393;50.560;12.636;2022-07-12T06:19:13;18.80;99.90
4759;DHT22;2393;50.560;12.636;2022-07-12T06:21:42;19.00;99.90
4759;DHT22;2393;50.560;12.636;2022-07-12T06:24:10;19.10;99.90
4759;DHT22;2393;50.560;12.636;2022-07-12T06:26:40;19.30;99.90
4759;DHT22;2393;50.560;12.636;2022-07-12T06:29:08;19.40;99.90
4759;DHT22;2393;50.560;12.636;2022-07-12T06:31:37;19.50;99.90
4759;DHT22;2393;50.560;12.636;2022-07-12T06:34:05;19.60;99.90
4759;DHT22;2393;50.560;12.636;2022-07-12T06:36:34;19.90;99.90
4759;DHT22;2393;50.560;12.636;2022-07-12T06:39:02;19.90;99.90
4759;DHT22;2393;50.560;12.636;2022-07-12T06:41:30;19.90;99.90
4759;DHT22;2393;50.560;12.636;2022-07-12T06:43:58;19.70;99.90
4759;DHT22;2393;50.560;12.636;2022-07-12T06:46:25;19.60;99.90
4759;DHT22;2393;50.560;12.636;2022-07-12T06:48:55;19.50;99.90
4759;DHT22;2393;50.560;12.636;2022-07-12T06:51:23;19.60;99.90
4759;DHT22;2393;50.560;12.636;2022-07-12T06:53:51;19.60;99.90
4759;DHT22;2393;50.560;12.636;2022-07-12T06:56:19;19.50;99.90
4759;DHT22;2393;50.560;12.636;2022-07-12T06:58:47;19.30;99.90
4759;DHT22;2393;50.560;12.636;2022-07-12T07:01:15;19.30;99.90
4759;DHT22;2393;50.560;12.636;2022-07-12T07:03:43;19.40;99.90
4759;DHT22;2393;50.560;12.636;2022-07-12T07:06:12;19.50;99.90
4759;DHT22;2393;50.560;12.636;2022-07-12T07:08:40;19.60;99.90
4759;DHT22;2393;50.560;12.636;2022-07-12T07:11:09;19.80;99.90
4759;DHT22;2393;50.560;12.636;2022-07-12T07:13:37;20.00;99.90
4759;DHT22;2393;50.560;12.636;2022-07-12T07:16:11;20.10;99.90
4759;DHT22;2393;50.560;12.636;2022-07-12T07:18:40;20.40;99.90
4759;DHT22;2393;50.560;12.636;2022-07-12T07:21:08;20.50;99.90
4759;DHT22;2393;50.560;12.636;2022-07-12T07:23:38;20.30;99.90
4759;DHT22;2393;50.560;12.636;2022-07-12T07:26:06;20.20;99.90
4759;DHT22;2393;50.560;12.636;2022-07-12T07:28:34;20.10;99.90
4759;DHT22;2393;50.560;12.636;2022-07-12T07:31:22;20.00;99.90
4759;DHT22;2393;50.560;12.636;2022-07-12T07:33:49;20.10;99.90
4759;DHT22;2393;50.560;12.636;2022-07-12T07:36:17;20.20;99.90
4759;DHT22;2393;50.560;12.636;2022-07-12T07:38:46;20.20;99.90
4759;DHT22;2393;50.560;12.636;2022-07-12T07:41:14;20.40;99.90
4759;DHT22;2393;50.560;12.636;2022-07-12T07:43:42;20.50;99.90
4759;DHT22;2393;50.560;12.636;2022-07-12T07:46:10;20.50;99.90
4759;DHT22;2393;50.560;12.636;2022-07-12T07:48:38;20.70;99.90
4759;DHT22;2393;50.560;12.636;2022-07-12T07:51:06;20.90;99.90
4759;DHT22;2393;50.560;12.636;2022-07-12T07:53:34;20.90;99.90
4759;DHT22;2393;50.560;12.636;2022-07-12T07:56:04;21.00;99.90
4759;DHT22;2393;50.560;12.636;2022-07-12T07:58:32;21.00;99.90
4759;DHT22;2393;50.560;12.636;2022-07-12T08:01:00;21.20;99.90
4759;DHT22;2393;50.560;12.636;2022-07-12T08:03:28;21.30;99.90
4759;DHT22;2393;50.560;12.636;2022-07-12T08:05:56;21.20;99.90
4759;DHT22;2393;50.560;12.636;2022-07-12T08:08:27;21.10;99.90
4759;DHT22;2393;50.560;12.636;2022-07-12T08:11:16;21.00;99.90
4759;DHT22;2393;50.560;12.636;2022-07-12T08:13:44;21.00;99.90
4759;DHT22;2393;50.560;12.636;2022-07-12T08:16:12;21.10;99.90
4759;DHT22;2393;50.560;12.636;2022-07-12T08:18:40;21.30;99.90
4759;DHT22;2393;50.560;12.636;2022-07-12T08:21:08;21.60;99.90
4759;DHT22;2393;50.560;12.636;2022-07-12T08:23:36;21.90;99.90
4759;DHT22;2393;50.560;12.636;2022-07-12T08:26:04;22.10;99.90
4759;DHT22;2393;50.560;12.636;2022-07-12T08:28:34;22.20;99.90
4759;DHT22;2393;50.560;12.636;2022-07-12T08:31:02;22.00;99.90
4759;DHT22;2393;50.560;12.636;2022-07-12T08:33:30;21.80;99.90
4759;DHT22;2393;50.560;12.636;2022-07-12T08:35:57;21.60;99.90
4759;DHT22;2393;50.560;12.636;2022-07-12T08:38:26;21.60;99.90
4759;DHT22;2393;50.560;12.636;2022-07-12T08:40:57;21.40;99.90
4759;DHT22;2393;50.560;12.636;2022-07-12T08:43:25;21.40;99.90
4759;DHT22;2393;50.560;12.636;2022-07-12T08:46:03;21.40;99.90
4759;DHT22;2393;50.560;12.636;2022-07-12T08:48:32;21.40;99.90
4759;DHT22;2393;50.560;12.636;2022-07-12T08:51:01;21.50;99.90
4759;DHT22;2393;50.560;12.636;2022-07-12T08:53:30;21.40;99.90
4759;DHT22;2393;50.560;12.636;2022-07-12T08:55:59;21.30;99.90
4759;DHT22;2393;50.560;12.636;2022-07-12T08:58:27;21.60;99.90
4759;DHT22;2393;50.560;12.636;2022-07-12T09:00:55;21.90;99.90
4759;DHT22;2393;50.560;12.636;2022-07-12T09:03:24;22.00;99.90
4759;DHT22;2393;50.560;12.636;2022-07-12T09:05:53;22.20;99.90
4759;DHT22;2393;50.560;12.636;2022-07-12T09:08:27;22.30;99.90
4759;DHT22;2393;50.560;12.636;2022-07-12T09:10:58;22.40;99.90
4759;DHT22;2393;50.560;12.636;2022-07-12T09:13:47;22.70;99.90
4759;DHT22;2393;50.560;12.636;2022-07-12T09:16:16;23.00;99.90
4759;DHT22;2393;50.560;12.636;2022-07-12T09:18:46;23.00;99.90
4759;DHT22;2393;50.560;12.636;2022-07-12T09:21:22;23.00;99.90
4759;DHT22;2393;50.560;12.636;2022-07-12T09:23:52;23.10;99.90
4759;DHT22;2393;50.560;12.636;2022-07-12T09:26:20;23.40;99.90
4759;DHT22;2393;50.560;12.636;2022-07-12T09:28:49;23.70;99.90
4759;DHT22;2393;50.560;12.636;2022-07-12T09:31:18;23.80;99.90
4759;DHT22;2393;50.560;12.636;2022-07-12T09:34:01;23.60;99.90
4759;DHT22;2393;50.560;12.636;2022-07-12T09:36:56;23.30;99.90
4759;DHT22;2393;50.560;12.636;2022-07-12T09:39:24;23.20;99.90
4759;DHT22;2393;50.560;12.636;2022-07-12T09:41:56;23.10;99.90
4759;DHT22;2393;50.560;12.636;2022-07-12T09:44:26;22.80;99.90
4759;DHT22;2393;50.560;12.636;2022-07-12T09:46:57;22.60;99.90
4759;DHT22;2393;50.560;12.636;2022-07-12T09:49:27;22.50;99.90
4759;DHT22;2393;50.560;12.636;2022-07-12T09:51:56;22.70;99.90
4759;DHT22;2393;50.560;12.636;2022-07-12T09:54:26;22.90;99.90
4759;DHT22;2393;50.560;12.636;2022-07-12T09:56:59;23.20;99.90
4759;DHT22;2393;50.560;12.636;2022-07-12T09:59:29;23.50;99.90
4759;DHT22;2393;50.560;12.636;2022-07-12T10:02:00;23.70;99.90
4759;DHT22;2393;50.560;12.636;2022-07-12T10:04:34;23.90;99.90
4759;DHT22;2393;50.560;12.636;2022-07-12T10:07:03;23.90;99.90
4759;DHT22;2393;50.560;12.636;2022-07-12T10:09:32;23.80;99.70
4759;DHT22;2393;50.560;12.636;2022-07-12T10:12:01;23.60;99.90
4759;DHT22;2393;50.560;12.636;2022-07-12T10:14:38;23.40;99.90
4759;DHT22;2393;50.560;12.636;2022-07-12T10:17:08;23.10;99.90
4759;DHT22;2393;50.560;12.636;2022-07-12T10:19:38;23.10;99.90
4759;DHT22;2393;50.560;12.636;2022-07-12T10:22:18;23.20;99.90
4759;DHT22;2393;50.560;12.636;2022-07-12T10:24:53;23.50;99.90
4759;DHT22;2393;50.560;12.636;2022-07-12T10:27:30;23.70;99.90
4759;DHT22;2393;50.560;12.636;2022-07-12T10:30:16;24.10;99.90
4759;DHT22;2393;50.560;12.636;2022-07-12T10:32:45;24.50;98.80
4759;DHT22;2393;50.560;12.636;2022-07-12T10:35:17;24.80;97.90
4759;DHT22;2393;50.560;12.636;2022-07-12T10:38:14;25.00;99.90
4759;DHT22;2393;50.560;12.636;2022-07-12T10:40:44;25.10;99.90
4759;DHT22;2393;50.560;12.636;2022-07-12T10:43:14;25.00;98.00
4759;DHT22;2393;50.560;12.636;2022-07-12T10:45:44;24.90;99.90
4759;DHT22;2393;50.560;12.636;2022-07-12T10:48:23;24.80;99.50
4759;DHT22;2393;50.560;12.636;2022-07-12T10:50:55;24.50;98.60
4759;DHT22;2393;50.560;12.636;2022-07-12T10:53:29;24.30;98.00
4759;DHT22;2393;50.560;12.636;2022-07-12T10:56:10;24.20;99.50
4759;DHT22;2393;50.560;12.636;2022-07-12T10:58:39;24.30;98.60
4759;DHT22;2393;50.560;12.636;2022-07-12T11:01:09;24.50;99.90
4759;DHT22;2393;50.560;12.636;2022-07-12T11:03:38;24.50;99.40
4759;DHT22;2393;50.560;12.636;2022-07-12T11:06:09;24.40;98.70
4759;DHT22;2393;50.560;12.636;2022-07-12T11:08:54;24.10;98.50
4759;DHT22;2393;50.560;12.636;2022-07-12T11:11:24;24.20;99.00
4759;DHT22;2393;50.560;12.636;2022-07-12T11:13:52;24.40;99.30
4759;DHT22;2393;50.560;12.636;2022-07-12T11:16:21;24.60;98.20
4759;DHT22;2393;50.560;12.636;2022-07-12T11:18:51;24.90;99.80
4759;DHT22;2393;50.560;12.636;2022-07-12T11:21:23;25.10;97.90
4759;DHT22;2393;50.560;12.636;2022-07-12T11:23:51;25.00;98.40
4759;DHT22;2393;50.560;12.636;2022-07-12T11:26:20;25.00;99.70
4759;DHT22;2393;50.560;12.636;2022-07-12T11:28:48;25.10;99.90
4759;DHT22;2393;50.560;12.636;2022-07-12T11:31:17;25.30;99.20
4759;DHT22;2393;50.560;12.636;2022-07-12T11:33:47;25.50;98.40
4759;DHT22;2393;50.560;12.636;2022-07-12T11:36:15;25.70;98.50
4759;DHT22;2393;50.560;12.636;2022-07-12T11:38:45;25.80;97.00
4759;DHT22;2393;50.560;12.636;2022-07-12T11:41:15;25.70;96.10
4759;DHT22;2393;50.560;12.636;2022-07-12T11:43:43;25.50;95.20
4759;DHT22;2393;50.560;12.636;2022-07-12T11:46:12;25.50;97.50
4759;DHT22;2393;50.560;12.636;2022-07-12T11:48:42;25.50;97.80
4759;DHT22;2393;50.560;12.636;2022-07-12T11:51:11;25.50;96.70
4759;DHT22;2393;50.560;12.636;2022-07-12T11:53:40;25.60;97.30
4759;DHT22;2393;50.560;12.636;2022-07-12T11:56:10;25.80;96.20
4759;DHT22;2393;50.560;12.636;2022-07-12T11:58:38;25.90;96.90
4759;DHT22;2393;50.560;12.636;2022-07-12T12:01:10;26.00;96.20
4759;DHT22;2393;50.560;12.636;2022-07-12T12:03:42;25.80;95.80
4759;DHT22;2393;50.560;12.636;2022-07-12T12:06:11;25.80;96.30
4759;DHT22;2393;50.560;12.636;2022-07-12T12:08:39;25.90;95.50
4759;DHT22;2393;50.560;12.636;2022-07-12T12:11:07;25.70;93.60
4759;DHT22;2393;50.560;12.636;2022-07-12T12:13:37;25.60;95.30
4759;DHT22;2393;50.560;12.636;2022-07-12T12:16:05;25.60;95.50
4759;DHT22;2393;50.560;12.636;2022-07-12T12:18:34;25.60;95.90
4759;DHT22;2393;50.560;12.636;2022-07-12T12:21:05;25.90;95.80
4759;DHT22;2393;50.560;12.636;2022-07-12T12:23:33;26.00;95.10
4759;DHT22;2393;50.560;12.636;2022-07-12T12:26:10;26.00;94.50
4759;DHT22;2393;50.560;12.636;2022-07-12T12:28:47;25.80;95.90
4759;DHT22;2393;50.560;12.636;2022-07-12T12:31:18;25.90;95.50
4759;DHT22;2393;50.560;12.636;2022-07-12T12:33:48;26.00;93.90
4759;DHT22;2393;50.560;12.636;2022-07-12T12:36:19;25.90;93.60
4759;DHT22;2393;50.560;12.636;2022-07-12T12:38:49;25.80;93.90
4759;DHT22;2393;50.560;12.636;2022-07-12T12:41:18;25.70;94.70
4759;DHT22;2393;50.560;12.636;2022-07-12T12:43:59;25.60;94.30
4759;DHT22;2393;50.560;12.636;2022-07-12T12:46:46;25.60;95.10
4759;DHT22;2393;50.560;12.636;2022-07-12T12:49:14;25.70;94.10
4759;DHT22;2393;50.560;12.636;2022-07-12T12:51:54;25.70;95.00
4759;DHT22;2393;50.560;12.636;2022-07-12T12:54:33;25.90;94.70
4759;DHT22;2393;50.560;12.636;2022-07-12T12:57:02;26.20;94.50
4759;DHT22;2393;50.560;12.636;2022-07-12T12:59:32;26.30;95.60
4759;DHT22;2393;50.560;12.636;2022-07-12T13:02:01;26.40;94.30
4759;DHT22;2393;50.560;12.636;2022-07-12T13:04:30;26.50;94.30
4759;DHT22;2393;50.560;12.636;2022-07-12T13:06:58;26.50;92.90
4759;DHT22;2393;50.560;12.636;2022-07-12T13:09:26;26.40;93.00
4759;DHT22;2393;50.560;12.636;2022-07-12T13:11:56;26.20;93.40
4759;DHT22;2393;50.560;12.636;2022-07-12T13:14:24;26.20;93.30
4759;DHT22;2393;50.560;12.636;2022-07-12T13:16:53;26.30;93.60
4759;DHT22;2393;50.560;12.636;2022-07-12T13:19:21;26.50;93.70
4759;DHT22;2393;50.560;12.636;2022-07-12T13:21:49;26.50;92.70
4759;DHT22;2393;50.560;12.636;2022-07-12T13:24:18;26.50;93.20
4759;DHT22;2393;50.560;12.636;2022-07-12T13:26:46;26.50;92.50
4759;DHT22;2393;50.560;12.636;2022-07-12T13:29:14;26.40;92.00
4759;DHT22;2393;50.560;12.636;2022-07-12T13:31:42;26.40;92.70
4759;DHT22;2393;50.560;12.636;2022-07-12T13:34:11;26.40;92.70
4759;DHT22;2393;50.560;12.636;2022-07-12T13:36:39;26.50;93.10
4759;DHT22;2393;50.560;12.636;2022-07-12T13:39:07;26.40;92.10
4759;DHT22;2393;50.560;12.636;2022-07-12T13:41:53;26.40;93.00
4759;DHT22;2393;50.560;12.636;2022-07-12T13:44:20;26.60;94.70
4759;DHT22;2393;50.560;12.636;2022-07-12T13:46:49;26.50;93.20
4759;DHT22;2393;50.560;12.636;2022-07-12T13:49:18;26.70;93.00
4759;DHT22;2393;50.560;12.636;2022-07-12T13:51:46;26.70;92.10
4759;DHT22;2393;50.560;12.636;2022-07-12T13:54:14;26.50;92.70
4759;DHT22;2393;50.560;12.636;2022-07-12T13:56:43;26.50;93.30
4759;DHT22;2393;50.560;12.636;2022-07-12T13:59:12;26.60;92.10
4759;DHT22;2393;50.560;12.636;2022-07-12T14:01:40;26.50;92.60
4759;DHT22;2393;50.560;12.636;2022-07-12T14:04:08;26.50;93.20
4759;DHT22;2393;50.560;12.636;2022-07-12T14:06:38;26.30;91.50
4759;DHT22;2393;50.560;12.636;2022-07-12T14:09:06;26.40;92.70
4759;DHT22;2393;50.560;12.636;2022-07-12T14:11:34;26.60;93.10
4759;DHT22;2393;50.560;12.636;2022-07-12T14:14:02;26.60;92.50
4759;DHT22;2393;50.560;12.636;2022-07-12T14:16:30;26.70;92.80
4759;DHT22;2393;50.560;12.636;2022-07-12T14:18:59;26.70;92.50
4759;DHT22;2393;50.560;12.636;2022-07-12T14:21:27;26.60;91.40
4759;DHT22;2393;50.560;12.636;2022-07-12T14:23:58;26.30;90.50
4759;DHT22;2393;50.560;12.636;2022-07-12T14:26:27;26.40;92.80
4759;DHT22;2393;50.560;12.636;2022-07-12T14:28:55;26.60;92.40
4759;DHT22;2393;50.560;12.636;2022-07-12T14:31:24;26.80;92.20
4759;DHT22;2393;50.560;12.636;2022-07-12T14:33:52;26.90;91.10
4759;DHT22;2393;50.560;12.636;2022-07-12T14:36:20;27.20;92.50
4759;DHT22;2393;50.560;12.636;2022-07-12T14:38:49;27.20;91.50
4759;DHT22;2393;50.560;12.636;2022-07-12T14:41:20;27.10;90.90
4759;DHT22;2393;50.560;12.636;2022-07-12T14:43:48;26.90;91.00
4759;DHT22;2393;50.560;12.636;2022-07-12T14:46:16;26.80;91.00
4759;DHT22;2393;50.560;12.636;2022-07-12T14:48:45;26.70;89.30
4759;DHT22;2393;50.560;12.636;2022-07-12T14:51:13;26.70;90.10
4759;DHT22;2393;50.560;12.636;2022-07-12T14:53:41;26.60;91.10
4759;DHT22;2393;50.560;12.636;2022-07-12T14:56:09;26.60;91.00
4759;DHT22;2393;50.560;12.636;2022-07-12T14:58:38;26.60;90.90
4759;DHT22;2393;50.560;12.636;2022-07-12T15:01:06;26.50;91.50
4759;DHT22;2393;50.560;12.636;2022-07-12T15:03:34;26.50;91.60
4759;DHT22;2393;50.560;12.636;2022-07-12T15:06:03;26.60;90.80
4759;DHT22;2393;50.560;12.636;2022-07-12T15:08:31;26.60;90.70
4759;DHT22;2393;50.560;12.636;2022-07-12T15:10:59;26.70;91.80
4759;DHT22;2393;50.560;12.636;2022-07-12T15:13:28;26.90;91.00
4759;DHT22;2393;50.560;12.636;2022-07-12T15:15:58;26.90;90.20
4759;DHT22;2393;50.560;12.636;2022-07-12T15:18:26;26.60;89.90
4759;DHT22;2393;50.560;12.636;2022-07-12T15:20:54;26.70;91.40
4759;DHT22;2393;50.560;12.636;2022-07-12T15:23:22;26.40;89.20
4759;DHT22;2393;50.560;12.636;2022-07-12T15:25:53;26.60;91.00
4759;DHT22;2393;50.560;12.636;2022-07-12T15:28:21;26.70;90.70
4759;DHT22;2393;50.560;12.636;2022-07-12T15:30:49;26.90;91.40
4759;DHT22;2393;50.560;12.636;2022-07-12T15:33:19;27.00;90.70
4759;DHT22;2393;50.560;12.636;2022-07-12T15:35:47;27.10;90.70
4759;DHT22;2393;50.560;12.636;2022-07-12T15:38:15;27.10;87.10
4759;DHT22;2393;50.560;12.636;2022-07-12T15:40:43;27.20;89.80
4759;DHT22;2393;50.560;12.636;2022-07-12T15:43:11;27.30;90.00
4759;DHT22;2393;50.560;12.636;2022-07-12T15:45:40;27.40;90.00
4759;DHT22;2393;50.560;12.636;2022-07-12T15:48:08;27.50;89.30
4759;DHT22;2393;50.560;12.636;2022-07-12T15:50:37;27.50;88.50
4759;DHT22;2393;50.560;12.636;2022-07-12T15:53:05;27.50;87.80
4759;DHT22;2393;50.560;12.636;2022-07-12T15:55:50;27.30;90.20
4759;DHT22;2393;50.560;12.636;2022-07-12T15:58:23;27.30;89.20
4759;DHT22;2393;50.560;12.636;2022-07-12T16:00:51;27.20;90.50